createdAt,value
2018-07-03T00:01:22.930Z,17.20
2018-07-03T00:03:51.574Z,17.10
2018-07-03T00:06:20.544Z,17.10
2018-07-03T00:08:49.279Z,17.10
2018-07-03T00:11:17.982Z,17.00
2018-07-03T00:13:46.610Z,17.00
2018-07-03T00:16:20.726Z,16.90
2018-07-03T00:18:49.669Z,16.90
2018-07-03T00:21:18.527Z,16.80
2018-07-03T00:23:47.159Z,16.80
2018-07-03T00:26:15.798Z,16.70
2018-07-03T00:28:44.496Z,16.70
2018-07-03T00:31:13.222Z,16.60
2018-07-03T00:33:41.867Z,16.50
2018-07-03T00:36:10.515Z,16.50
2018-07-03T00:38:39.304Z,16.50
2018-07-03T00:41:08.196Z,16.50
2018-07-03T00:43:36.973Z,16.40
2018-07-03T00:46:05.681Z,16.40
2018-07-03T00:48:34.396Z,16.30
2018-07-03T00:51:03.279Z,16.30
2018-07-03T00:53:31.929Z,16.30
2018-07-03T00:56:00.679Z,16.30
2018-07-03T00:58:30.093Z,16.20
2018-07-03T01:00:59.337Z,16.30
2018-07-03T01:05:56.266Z,16.40
2018-07-03T01:08:24.923Z,16.40
2018-07-03T01:10:53.664Z,16.40
2018-07-03T01:13:22.269Z,16.30
2018-07-03T01:15:50.998Z,16.30
2018-07-03T01:18:19.682Z,16.20
2018-07-03T01:20:48.268Z,16.10
2018-07-03T01:23:17.151Z,16.10
2018-07-03T01:25:45.761Z,16.10
2018-07-03T01:28:14.375Z,16.10
2018-07-03T01:30:43.233Z,16.00
2018-07-03T01:33:11.855Z,16.00
2018-07-03T01:35:40.574Z,15.90
2018-07-03T01:38:09.230Z,15.80
2018-07-03T01:40:37.925Z,15.80
2018-07-03T01:43:07.155Z,15.80
2018-07-03T01:45:35.745Z,15.70
2018-07-03T01:48:04.411Z,15.80
2018-07-03T01:50:33.063Z,15.80
2018-07-03T01:53:01.694Z,15.70
2018-07-03T01:55:30.337Z,15.70
2018-07-03T01:57:59.468Z,15.70
2018-07-03T02:00:28.106Z,15.60
2018-07-03T02:02:56.734Z,15.50
2018-07-03T02:05:25.891Z,15.50
2018-07-03T02:07:55.746Z,15.50
2018-07-03T02:10:25.452Z,15.40
2018-07-03T02:12:54.326Z,15.40
2018-07-03T02:15:23.924Z,15.40
2018-07-03T02:17:52.617Z,15.30
2018-07-03T02:20:21.309Z,15.30
2018-07-03T02:22:49.920Z,15.40
2018-07-03T02:25:18.564Z,15.40
2018-07-03T02:27:47.306Z,15.40
2018-07-03T02:30:15.973Z,15.40
2018-07-03T02:32:44.816Z,15.40
2018-07-03T02:35:13.495Z,15.40
2018-07-03T02:37:43.436Z,15.40
2018-07-03T02:40:12.549Z,15.30
2018-07-03T02:42:41.218Z,15.30
2018-07-03T02:45:09.994Z,15.20
2018-07-03T02:47:38.655Z,15.30
2018-07-03T02:50:07.839Z,15.30
2018-07-03T02:52:36.561Z,15.20
2018-07-03T02:57:33.563Z,15.20
2018-07-03T03:00:02.237Z,15.10
2018-07-03T03:02:31.235Z,15.10
2018-07-03T03:05:00.963Z,15.10
2018-07-03T03:07:29.652Z,15.00
2018-07-03T03:09:58.267Z,15.00
2018-07-03T03:12:26.849Z,15.00
2018-07-03T03:14:55.510Z,14.90
2018-07-03T03:17:24.194Z,15.00
2018-07-03T03:19:52.902Z,15.00
2018-07-03T03:22:21.529Z,14.90
2018-07-03T03:24:50.194Z,14.90
2018-07-03T03:27:18.883Z,14.90
2018-07-03T03:29:47.726Z,14.80
2018-07-03T03:32:16.470Z,14.80
2018-07-03T03:34:45.192Z,14.80
2018-07-03T03:37:13.867Z,14.70
2018-07-03T03:39:42.534Z,14.70
2018-07-03T03:42:11.257Z,14.60
2018-07-03T03:44:40.157Z,14.50
2018-07-03T03:47:09.074Z,14.50
2018-07-03T03:49:37.798Z,14.50
2018-07-03T03:52:06.475Z,14.40
2018-07-03T03:54:35.188Z,14.40
2018-07-03T03:57:03.936Z,14.40
2018-07-03T03:59:32.867Z,14.50
2018-07-03T04:02:01.583Z,14.40
2018-07-03T04:04:30.439Z,14.40
2018-07-03T04:06:59.277Z,14.40
2018-07-03T04:11:56.280Z,14.40
2018-07-03T04:14:24.909Z,14.40
2018-07-03T04:16:53.893Z,14.40
2018-07-03T04:19:22.545Z,14.50
2018-07-03T04:21:51.245Z,14.50
2018-07-03T04:24:19.886Z,14.50
2018-07-03T04:26:48.596Z,14.50
2018-07-03T04:29:17.251Z,14.60
2018-07-03T04:31:45.951Z,14.70
2018-07-03T04:34:14.551Z,15.20
2018-07-03T04:36:43.262Z,15.80
2018-07-03T04:39:11.959Z,16.40
2018-07-03T04:41:40.755Z,17.00
2018-07-03T04:44:09.487Z,17.60
2018-07-03T04:46:38.514Z,18.00
2018-07-03T04:49:07.205Z,18.20
2018-07-03T04:51:35.873Z,18.10
2018-07-03T04:54:04.589Z,18.00
2018-07-03T04:56:33.531Z,18.30
2018-07-03T04:59:02.330Z,18.80
2018-07-03T05:01:30.953Z,19.50
2018-07-03T05:03:59.859Z,20.60
2018-07-03T05:06:28.479Z,21.00
2018-07-03T05:08:57.238Z,21.20
2018-07-03T05:11:25.873Z,21.60
2018-07-03T05:13:55.063Z,21.80
2018-07-03T05:16:23.717Z,22.40
2018-07-03T05:18:52.423Z,22.70
2018-07-03T05:21:21.131Z,23.30
2018-07-03T05:23:49.846Z,23.40
2018-07-03T05:26:18.445Z,23.50
2018-07-03T05:28:47.098Z,23.80
2018-07-03T05:31:15.705Z,24.30
2018-07-03T05:33:44.356Z,25.30
2018-07-03T05:36:13.167Z,25.20
2018-07-03T05:38:41.779Z,24.90
2018-07-03T05:41:10.448Z,25.40
2018-07-03T05:43:39.210Z,25.50
2018-07-03T05:46:08.124Z,25.70
2018-07-03T05:48:36.816Z,25.70
2018-07-03T05:51:05.521Z,25.60
2018-07-03T05:53:34.180Z,25.70
2018-07-03T05:56:02.809Z,25.90
2018-07-03T06:00:59.754Z,26.00
2018-07-03T06:03:28.436Z,26.10
2018-07-03T06:05:57.104Z,26.00
2018-07-03T06:08:25.801Z,25.90
2018-07-03T06:10:54.533Z,25.60
2018-07-03T06:13:23.168Z,25.60
2018-07-03T06:15:52.810Z,26.30
2018-07-03T06:18:21.440Z,26.90
2018-07-03T06:20:50.116Z,27.10
2018-07-03T06:23:18.786Z,27.70
2018-07-03T06:25:47.405Z,28.10
2018-07-03T06:28:16.258Z,28.60
2018-07-03T06:30:45.112Z,28.40
2018-07-03T06:33:13.791Z,28.30
2018-07-03T06:35:42.610Z,28.50
2018-07-03T06:38:11.266Z,28.60
2018-07-03T06:40:40.039Z,28.80
2018-07-03T06:43:08.889Z,28.60
2018-07-03T06:45:37.812Z,28.30
2018-07-03T06:48:06.470Z,29.10
2018-07-03T06:50:35.084Z,29.60
2018-07-03T06:53:03.867Z,29.00
2018-07-03T06:55:32.541Z,28.90
2018-07-03T06:58:01.300Z,28.50
2018-07-03T07:00:30.113Z,28.20
2018-07-03T07:02:58.814Z,27.50
2018-07-03T07:05:27.503Z,27.00
2018-07-03T07:07:56.190Z,25.90
2018-07-03T07:10:24.827Z,25.20
2018-07-03T07:12:53.423Z,24.60
2018-07-03T07:15:21.992Z,24.00
2018-07-03T07:17:50.611Z,23.40
2018-07-03T07:20:19.203Z,23.30
2018-07-03T07:22:47.897Z,22.80
2018-07-03T07:25:16.622Z,22.30
2018-07-03T07:27:45.571Z,22.40
2018-07-03T07:30:14.257Z,22.30
2018-07-03T07:32:43.058Z,22.30
2018-07-03T07:35:11.766Z,22.20
2018-07-03T07:37:40.409Z,22.20
2018-07-03T07:40:09.101Z,22.10
2018-07-03T07:42:37.811Z,22.30
2018-07-03T07:45:06.887Z,22.30
2018-07-03T07:47:35.909Z,22.50
2018-07-03T07:50:05.361Z,22.50
2018-07-03T07:52:34.298Z,22.70
2018-07-03T07:55:02.923Z,22.80
2018-07-03T07:57:31.582Z,22.90
2018-07-03T08:00:00.773Z,23.00
2018-07-03T08:02:29.447Z,23.10
2018-07-03T08:04:58.191Z,23.10
2018-07-03T08:07:26.883Z,23.20
2018-07-03T08:09:55.618Z,23.20
2018-07-03T08:12:24.283Z,23.30
2018-07-03T08:14:53.206Z,23.40
2018-07-03T08:17:21.884Z,23.40
2018-07-03T08:19:50.728Z,23.20
2018-07-03T08:22:19.578Z,23.40
2018-07-03T08:24:48.322Z,23.40
2018-07-03T08:27:17.085Z,23.60
2018-07-03T08:29:45.761Z,23.50
2018-07-03T08:32:14.348Z,23.60
2018-07-03T08:34:42.987Z,23.90
2018-07-03T08:37:11.703Z,24.00
2018-07-03T08:39:40.340Z,24.20
2018-07-03T08:42:09.028Z,24.40
2018-07-03T08:44:37.745Z,24.50
2018-07-03T08:47:06.510Z,24.60
2018-07-03T08:49:35.230Z,24.70
2018-07-03T08:52:04.076Z,24.70
2018-07-03T08:54:32.723Z,24.70
2018-07-03T08:57:01.449Z,24.80
2018-07-03T08:59:30.087Z,24.70
2018-07-03T09:04:27.193Z,24.90
2018-07-03T09:06:56.224Z,24.90
2018-07-03T09:09:24.892Z,25.00
2018-07-03T09:11:53.771Z,25.00
2018-07-03T09:14:22.486Z,25.00
2018-07-03T09:16:51.260Z,25.10
2018-07-03T09:19:19.926Z,25.10
2018-07-03T09:21:48.681Z,25.20
2018-07-03T09:24:17.320Z,25.20
2018-07-03T09:26:46.025Z,25.30
2018-07-03T09:29:14.714Z,25.20
2018-07-03T09:31:43.453Z,25.30
2018-07-03T09:34:12.143Z,25.30
2018-07-03T09:36:40.930Z,25.40
2018-07-03T09:39:10.659Z,25.50
2018-07-03T09:41:40.199Z,25.40
2018-07-03T09:44:09.521Z,25.40
2018-07-03T09:46:38.246Z,25.60
2018-07-03T09:49:07.458Z,25.70
2018-07-03T09:51:36.193Z,25.90
2018-07-03T09:54:04.827Z,26.00
2018-07-03T09:56:33.944Z,26.00
2018-07-03T09:59:02.606Z,26.10
2018-07-03T10:01:31.497Z,26.10
2018-07-03T10:04:00.155Z,26.10
2018-07-03T10:06:28.905Z,26.10
2018-07-03T10:08:57.597Z,26.20
2018-07-03T10:11:26.330Z,26.10
2018-07-03T10:13:54.983Z,26.10
2018-07-03T10:18:51.995Z,26.40
2018-07-03T10:21:20.685Z,26.30
2018-07-03T10:23:49.331Z,26.30
2018-07-03T10:26:17.954Z,26.40
2018-07-03T10:28:46.631Z,26.50
2018-07-03T10:31:15.483Z,26.60
2018-07-03T10:36:12.724Z,26.50
2018-07-03T10:38:41.404Z,26.40
2018-07-03T10:41:10.249Z,26.20
2018-07-03T10:43:38.900Z,26.30
2018-07-03T10:46:07.651Z,26.40
2018-07-03T10:48:36.291Z,26.60
2018-07-03T10:51:05.039Z,26.60
2018-07-03T10:53:33.785Z,26.10
2018-07-03T10:56:02.882Z,26.10
2018-07-03T10:58:31.848Z,26.20
2018-07-03T11:01:00.889Z,26.10
2018-07-03T11:03:29.591Z,26.10
2018-07-03T11:05:58.424Z,26.30
2018-07-03T11:08:27.527Z,26.20
2018-07-03T11:10:56.459Z,26.10
2018-07-03T11:13:25.243Z,26.10
2018-07-03T11:15:54.218Z,26.20
2018-07-03T11:18:22.961Z,26.30
2018-07-03T11:23:22.892Z,26.50
2018-07-03T11:28:19.863Z,26.50
2018-07-03T11:30:48.543Z,26.60
2018-07-03T11:33:17.227Z,26.80
2018-07-03T11:35:45.841Z,26.90
2018-07-03T11:38:14.512Z,26.90
2018-07-03T11:40:43.210Z,26.90
2018-07-03T11:43:11.896Z,26.70
2018-07-03T11:45:40.517Z,26.70
2018-07-03T11:48:09.225Z,26.70
2018-07-03T11:50:37.870Z,26.80
2018-07-03T11:53:06.706Z,27.00
2018-07-03T11:55:35.710Z,27.30
2018-07-03T11:58:04.474Z,27.50
2018-07-03T12:03:01.528Z,27.70
2018-07-03T12:05:30.665Z,27.90
2018-07-03T12:07:59.389Z,27.90
2018-07-03T12:10:28.093Z,28.00
2018-07-03T12:12:57.487Z,27.80
2018-07-03T12:15:26.257Z,27.70
2018-07-03T12:17:54.982Z,27.70
2018-07-03T12:20:23.669Z,27.60
2018-07-03T12:22:52.381Z,27.70
2018-07-03T12:25:21.239Z,27.70
2018-07-03T12:27:50.012Z,27.80
2018-07-03T12:30:18.701Z,27.90
2018-07-03T12:32:47.694Z,28.00
2018-07-03T12:35:16.954Z,28.00
2018-07-03T12:40:14.146Z,28.00
2018-07-03T12:42:43.609Z,28.00
2018-07-03T12:45:12.279Z,28.00
2018-07-03T12:47:41.097Z,27.90
2018-07-03T12:52:38.142Z,28.00
2018-07-03T12:55:06.941Z,28.00
2018-07-03T12:57:35.865Z,28.10
2018-07-03T13:00:05.661Z,28.10
2018-07-03T13:05:03.200Z,27.90
2018-07-03T13:07:31.872Z,27.90
2018-07-03T13:10:00.575Z,28.10
2018-07-03T13:12:29.625Z,28.00
2018-07-03T13:14:58.530Z,28.20
2018-07-03T13:17:27.233Z,28.30
2018-07-03T13:19:55.945Z,28.30
2018-07-03T13:22:24.563Z,28.30
2018-07-03T13:24:53.201Z,28.20
2018-07-03T13:27:21.852Z,28.40
2018-07-03T13:29:50.462Z,28.20
2018-07-03T13:32:19.336Z,28.40
2018-07-03T13:34:48.016Z,28.40
2018-07-03T13:37:16.861Z,28.10
2018-07-03T13:39:45.577Z,28.00
2018-07-03T13:42:14.359Z,27.90
2018-07-03T13:44:43.101Z,27.90
2018-07-03T13:47:11.872Z,27.90
2018-07-03T13:49:40.782Z,27.90
2018-07-03T13:52:09.492Z,28.00
2018-07-03T13:54:38.304Z,28.00
2018-07-03T13:57:07.017Z,28.00
2018-07-03T13:59:35.647Z,28.00
2018-07-03T14:04:32.673Z,28.10
2018-07-03T14:07:01.384Z,28.10
2018-07-03T14:09:30.006Z,28.20
2018-07-03T14:11:58.755Z,28.30
2018-07-03T14:14:27.411Z,28.30
2018-07-03T14:16:56.248Z,28.30
2018-07-03T14:19:24.923Z,28.30
2018-07-03T14:21:53.896Z,28.30
2018-07-03T14:24:22.688Z,28.30
2018-07-03T14:26:51.415Z,28.40
2018-07-03T14:29:20.156Z,28.30
2018-07-03T14:31:49.199Z,28.40
2018-07-03T14:34:18.003Z,28.40
2018-07-03T14:36:46.816Z,28.40
2018-07-03T14:39:15.546Z,28.50
2018-07-03T14:44:12.636Z,28.50
2018-07-03T14:46:41.393Z,28.50
2018-07-03T14:49:10.120Z,28.60
2018-07-03T14:51:38.742Z,28.70
2018-07-03T14:54:07.458Z,28.80
2018-07-03T14:56:36.278Z,28.80
2018-07-03T14:59:05.235Z,28.90
2018-07-03T15:04:02.842Z,28.90
2018-07-03T15:06:32.276Z,28.90
2018-07-03T15:09:01.165Z,28.90
2018-07-03T15:11:30.304Z,29.00
2018-07-03T15:13:59.324Z,29.00
2018-07-03T15:16:28.227Z,29.00
2018-07-03T15:19:02.348Z,29.00
2018-07-03T15:21:31.332Z,29.00
2018-07-03T15:24:00.209Z,29.00
2018-07-03T15:26:29.091Z,28.90
2018-07-03T15:28:58.017Z,29.00
2018-07-03T15:31:27.473Z,29.00
2018-07-03T15:33:57.077Z,29.00
2018-07-03T15:36:26.470Z,28.90
2018-07-03T15:38:55.441Z,28.90
2018-07-03T15:41:24.742Z,28.90
2018-07-03T15:44:06.082Z,28.90
2018-07-03T15:49:04.700Z,29.00
2018-07-03T15:51:34.359Z,29.00
2018-07-03T15:54:04.204Z,28.90
2018-07-03T15:56:33.233Z,28.90
2018-07-03T15:59:02.825Z,28.90
2018-07-03T16:01:31.818Z,28.90
2018-07-03T16:05:12.264Z,28.70
2018-07-03T16:10:15.413Z,28.60
2018-07-03T16:12:44.228Z,28.50
2018-07-03T16:15:13.319Z,28.50
2018-07-03T16:17:42.218Z,28.50
2018-07-03T16:20:16.258Z,28.70
2018-07-03T16:22:45.426Z,28.70
2018-07-03T16:25:14.392Z,28.80
2018-07-03T16:27:43.784Z,28.80
2018-07-03T16:30:13.276Z,28.70
2018-07-03T16:32:42.667Z,28.70
2018-07-03T16:35:11.686Z,28.80
2018-07-03T16:37:40.869Z,28.90
2018-07-03T16:40:09.978Z,28.90
2018-07-03T16:42:39.022Z,28.80
2018-07-03T16:45:08.036Z,28.80
2018-07-03T16:47:36.987Z,28.90
2018-07-03T16:50:06.052Z,28.90
2018-07-03T16:52:35.072Z,29.00
2018-07-03T16:55:04.011Z,29.10
2018-07-03T16:57:33.991Z,29.20
2018-07-03T17:00:03.992Z,29.10
2018-07-03T17:02:33.116Z,29.00
2018-07-03T17:05:02.272Z,29.10
2018-07-03T17:07:31.448Z,30.20
2018-07-03T17:10:00.527Z,32.20
2018-07-03T17:12:29.627Z,33.50
2018-07-03T17:14:58.609Z,34.10
2018-07-03T17:17:27.540Z,35.20
2018-07-03T17:19:57.517Z,35.70
2018-07-03T17:22:26.552Z,36.00
2018-07-03T17:24:56.302Z,36.30
2018-07-03T17:27:25.183Z,36.30
2018-07-03T17:29:54.179Z,36.80
2018-07-03T17:32:23.180Z,36.90
2018-07-03T17:34:52.068Z,37.30
2018-07-03T17:37:21.080Z,37.90
2018-07-03T17:40:01.018Z,37.10
2018-07-03T17:42:40.911Z,37.70
2018-07-03T17:45:46.614Z,37.40
2018-07-03T17:48:16.651Z,37.60
2018-07-03T17:50:45.654Z,37.60
2018-07-03T17:53:14.943Z,37.90
2018-07-03T17:55:43.838Z,38.10
2018-07-03T17:58:13.655Z,37.80
2018-07-03T18:00:42.658Z,37.10
2018-07-03T18:03:11.576Z,35.80
2018-07-03T18:05:40.419Z,34.00
2018-07-03T18:08:09.484Z,32.50
2018-07-03T18:10:38.983Z,31.50
2018-07-03T18:13:08.176Z,30.50
2018-07-03T18:15:37.191Z,29.60
2018-07-03T18:18:06.184Z,29.00
2018-07-03T18:20:35.822Z,28.60
2018-07-03T18:23:04.844Z,28.20
2018-07-03T18:25:33.908Z,28.00
2018-07-03T18:28:03.642Z,27.80
2018-07-03T18:30:32.701Z,27.70
2018-07-03T18:33:02.637Z,27.60
2018-07-03T18:35:31.723Z,27.50
2018-07-03T18:38:00.635Z,27.40
2018-07-03T18:40:29.504Z,27.30
2018-07-03T18:42:59.036Z,27.20
2018-07-03T18:45:29.077Z,27.10
2018-07-03T18:47:58.049Z,27.00
2018-07-03T18:50:27.037Z,26.90
2018-07-03T18:52:56.564Z,26.70
2018-07-03T18:55:25.406Z,26.50
2018-07-03T18:57:54.506Z,26.40
2018-07-03T19:00:23.489Z,26.30
2018-07-03T19:02:52.544Z,26.30
2018-07-03T19:05:21.384Z,26.20
2018-07-03T19:07:50.425Z,26.10
2018-07-03T19:10:19.522Z,26.00
2018-07-03T19:12:48.620Z,25.90
2018-07-03T19:15:17.582Z,25.90
2018-07-03T19:17:46.475Z,25.80
2018-07-03T19:20:15.863Z,25.80
2018-07-03T19:22:45.048Z,25.70
2018-07-03T19:25:14.253Z,25.60
2018-07-03T19:27:43.973Z,25.50
2018-07-03T19:30:12.893Z,25.40
2018-07-03T19:32:41.997Z,25.40
2018-07-03T19:35:10.928Z,25.30
2018-07-03T19:37:39.981Z,25.10
2018-07-03T19:40:11.679Z,25.00
2018-07-03T19:42:52.471Z,24.90
2018-07-03T19:47:50.493Z,24.60
2018-07-03T19:50:19.655Z,24.40
2018-07-03T19:52:48.742Z,24.30
2018-07-03T19:55:17.963Z,24.20
2018-07-03T19:57:46.987Z,24.20
2018-07-03T20:00:16.015Z,24.10
2018-07-03T20:02:44.988Z,24.00
2018-07-03T20:05:14.115Z,23.80
2018-07-03T20:07:43.355Z,23.80
2018-07-03T20:15:10.541Z,23.50
2018-07-03T20:17:39.588Z,23.40
2018-07-03T20:20:09.067Z,23.30
2018-07-03T20:22:38.629Z,23.20
2018-07-03T20:25:07.663Z,23.10
2018-07-03T20:27:36.967Z,23.10
2018-07-03T20:30:06.138Z,22.90
2018-07-03T20:32:35.203Z,22.90
2018-07-03T20:35:04.735Z,22.80
2018-07-03T20:37:43.691Z,22.60
2018-07-03T20:40:12.788Z,22.60
2018-07-03T20:42:41.902Z,22.50
2018-07-03T20:45:10.917Z,22.50
2018-07-03T20:47:40.716Z,22.40
2018-07-03T20:50:09.570Z,22.40
2018-07-03T20:52:38.472Z,22.30
2018-07-03T20:55:07.394Z,22.30
2018-07-03T20:57:36.344Z,22.20
2018-07-03T21:00:05.355Z,22.20
2018-07-03T21:02:34.186Z,22.20
2018-07-03T21:05:03.518Z,22.10
2018-07-03T21:07:32.509Z,22.10
2018-07-03T21:10:01.523Z,22.10
2018-07-03T21:12:33.229Z,22.00
2018-07-03T21:15:02.116Z,21.90
2018-07-03T21:17:30.981Z,21.80
2018-07-03T21:19:59.922Z,21.70
2018-07-03T21:22:28.988Z,21.50
2018-07-03T21:24:57.932Z,21.60
2018-07-03T21:27:26.931Z,21.60
2018-07-03T21:29:56.833Z,21.50
2018-07-03T21:32:25.953Z,21.40
2018-07-03T21:34:55.066Z,21.40
2018-07-03T21:37:23.991Z,21.30
2018-07-03T21:39:53.775Z,21.30
2018-07-03T21:42:23.713Z,21.30
2018-07-03T21:44:52.701Z,21.30
2018-07-03T21:49:50.624Z,21.20
2018-07-03T21:52:19.696Z,21.10
2018-07-03T21:54:48.677Z,21.00
2018-07-03T21:57:17.637Z,21.00
2018-07-03T21:59:46.507Z,21.00
2018-07-03T22:02:15.514Z,20.80
2018-07-03T22:04:44.618Z,20.70
2018-07-03T22:07:13.918Z,20.80
2018-07-03T22:09:42.853Z,20.80
2018-07-03T22:12:11.837Z,20.70
2018-07-03T22:14:41.989Z,20.70
2018-07-03T22:17:11.694Z,20.60
2018-07-03T22:19:40.777Z,20.60
2018-07-03T22:22:09.848Z,20.50
2018-07-03T22:24:38.835Z,20.50
2018-07-03T22:27:08.450Z,20.40
2018-07-03T22:29:37.652Z,20.30
2018-07-03T22:32:06.552Z,20.30
2018-07-03T22:34:35.566Z,20.20
2018-07-03T22:37:04.397Z,20.20
2018-07-03T22:39:33.337Z,20.10
2018-07-03T22:42:02.107Z,20.00
2018-07-03T22:44:30.892Z,20.00
2018-07-03T22:46:59.832Z,19.80
2018-07-03T22:49:29.052Z,19.80
2018-07-03T22:51:57.917Z,19.80
2018-07-03T22:54:27.159Z,19.70
2018-07-03T22:56:56.444Z,19.60
2018-07-03T22:59:25.481Z,19.60
2018-07-03T23:01:54.665Z,19.60
2018-07-03T23:04:23.471Z,19.50
2018-07-03T23:06:52.491Z,19.40
2018-07-03T23:09:21.594Z,19.40
2018-07-03T23:11:50.599Z,19.40
2018-07-03T23:14:19.372Z,19.30
2018-07-03T23:16:48.916Z,19.30
2018-07-03T23:19:18.514Z,19.30
2018-07-03T23:21:47.363Z,19.20
2018-07-03T23:24:16.296Z,19.20
2018-07-03T23:26:46.262Z,19.20
2018-07-03T23:29:15.162Z,19.10
2018-07-03T23:34:12.478Z,19.00
2018-07-03T23:36:41.444Z,19.00
2018-07-03T23:39:10.998Z,18.90
2018-07-03T23:41:39.905Z,18.90
2018-07-03T23:44:08.681Z,18.80
2018-07-03T23:46:48.805Z,18.80
2018-07-03T23:49:28.752Z,18.70
2018-07-03T23:52:08.681Z,18.70
2018-07-03T23:54:48.479Z,18.60
2018-07-03T23:57:28.401Z,18.60
